Time;durP1;ratioP1;P1;durP2;ratioP2;P2;SDS_P1;SDS_P2;PMS_P1;PMS_P2;Temp;Humidity;BMP_temperature;BMP_pressure;BME280_temperature;BME280_humidity;BME280_pressure;Samples;Min_cycle;Max_cycle;Signal;HPM_P1;HPM_P2
2021/12/12 00:00:12;;;;;;;60.33;26.42;;;4.30;99.90;;;;;;5068998;28;20106;-83
2021/12/12 00:03:16;;;;;;;62.08;27.08;;;3.90;99.90;;;;;;5067563;28;20051;-82
2021/12/12 00:05:44;;;;;;;60.17;25.52;;;3.90;99.90;;;;;;5069716;28;20040;-83
2021/12/12 00:08:11;;;;;;;57.88;24.90;;;4.00;99.90;;;;;;5051959;28;20037;-83
2021/12/12 00:10:40;;;;;;;65.82;26.20;;;5.00;99.90;;;;;;5053262;28;20048;-83
2021/12/12 00:13:16;;;;;;;61.17;26.17;;;4.00;99.90;;;;;;5070544;28;20097;-83
2021/12/12 00:15:42;;;;;;;52.72;23.90;;;3.90;99.90;;;;;;5070581;28;20457;-83
2021/12/12 00:18:09;;;;;;;60.92;24.15;;;5.30;99.90;;;;;;5054185;28;20113;-83
2021/12/12 00:20:35;;;;;;;59.22;24.38;;;4.20;99.90;;;;;;5053336;28;20041;-83
2021/12/12 00:23:01;;;;;;;;;;;4.10;99.90;;;;;;5054034;28;20097;-83
2021/12/12 00:25:31;;;;;;;57.97;23.50;;;4.10;99.90;;;;;;5067866;28;20054;-83
2021/12/12 00:27:57;;;;;;;57.10;23.80;;;4.10;99.90;;;;;;5070371;28;20037;-83
2021/12/12 00:30:24;;;;;;;56.67;24.95;;;4.10;99.90;;;;;;5036807;28;20566;-83
2021/12/12 00:32:51;;;;;;;53.53;25.45;;;5.40;99.90;;;;;;5070099;28;20032;-83
2021/12/12 00:35:17;;;;;;;53.10;24.67;;;4.00;99.90;;;;;;5053841;28;20477;-83
2021/12/12 00:37:44;;;;;;;56.70;24.05;;;4.10;99.90;;;;;;5053114;28;20036;-82
2021/12/12 00:40:28;;;;;;;56.63;25.83;;;4.10;99.90;;;;;;5053995;28;20040;-82
2021/12/12 00:42:57;;;;;;;58.00;27.00;;;4.00;99.90;;;;;;5051927;28;20036;-83
2021/12/12 00:45:23;;;;;;;65.15;28.13;;;4.30;99.90;;;;;;5053021;28;20070;-83
2021/12/12 00:47:49;;;;;;;50.60;23.70;;;4.00;99.90;;;;;;5069956;28;20040;-82
2021/12/12 00:50:27;;;;;;;58.15;24.30;;;4.30;99.90;;;;;;5070090;28;20028;-83
2021/12/12 00:52:53;;;;;;;57.15;25.55;;;4.10;99.90;;;;;;5068235;28;20467;-83
2021/12/12 00:55:19;;;;;;;47.13;21.73;;;4.10;99.90;;;;;;5070470;28;20500;-83
2021/12/12 00:57:50;;;;;;;62.83;26.48;;;4.50;99.90;;;;;;5036285;28;20090;-83
2021/12/12 01:00:18;;;;;;;56.95;26.45;;;5.30;99.90;;;;;;5054327;28;20393;-82
2021/12/12 01:02:44;;;;;;;63.03;26.00;;;4.30;99.90;;;;;;5053215;28;20037;-83
2021/12/12 01:05:12;;;;;;;53.58;26.65;;;5.40;99.90;;;;;;5053683;28;20042;-84
2021/12/12 01:07:40;;;;;;;65.05;27.38;;;4.30;99.90;;;;;;5069432;28;20043;-83
2021/12/12 01:10:31;;;;;;;65.38;28.08;;;4.30;99.90;;;;;;5069835;28;20048;-82
2021/12/12 01:12:58;;;;;;;54.72;25.73;;;4.50;99.90;;;;;;5069737;28;20041;-82
2021/12/12 01:15:42;;;;;;;57.28;26.45;;;4.20;99.90;;;;;;5069369;28;20082;-82
2021/12/12 01:18:11;;;;;;;61.70;26.77;;;4.20;99.90;;;;;;5068912;28;20036;-83
2021/12/12 01:20:52;;;;;;;57.90;26.45;;;4.20;99.90;;;;;;5073139;28;20032;-83
2021/12/12 01:23:35;;;;;;;54.55;25.45;;;4.30;99.90;;;;;;5056966;28;20090;-83
2021/12/12 01:26:01;;;;;;;48.65;22.38;;;4.20;99.90;;;;;;5057119;28;20548;-83
2021/12/12 01:28:30;;;;;;;59.42;25.45;;;4.30;99.90;;;;;;5073267;28;20545;-83
2021/12/12 01:31:00;;;;;;;51.05;22.75;;;4.40;99.90;;;;;;5072933;28;20127;-82
2021/12/12 01:33:33;;;;;;;60.55;25.35;;;4.40;99.90;;;;;;5073315;28;20427;-83
2021/12/12 01:36:26;;;;;;;55.30;23.65;;;4.50;99.90;;;;;;5071189;28;20074;-83
2021/12/12 01:38:56;;;;;;;51.80;23.48;;;4.40;99.90;;;;;;5072469;28;20051;-83
2021/12/12 01:41:27;;;;;;;52.25;24.48;;;4.50;99.90;;;;;;5057079;28;20042;-83
2021/12/12 01:43:59;;;;;;;60.63;27.40;;;4.50;99.90;;;;;;5073058;28;20036;-83
2021/12/12 01:46:33;;;;;;;64.93;27.42;;;4.90;99.90;;;;;;5056681;28;20369;-83
2021/12/12 01:49:11;;;;;;;65.65;28.50;;;5.40;99.90;;;;;;5071185;28;20033;-83
2021/12/12 01:51:38;;;;;;;58.45;24.38;;;4.40;99.90;;;;;;5072902;28;20070;-83
2021/12/12 01:54:08;;;;;;;64.05;26.60;;;4.50;99.90;;;;;;5039795;28;20036;-83
2021/12/12 01:56:53;;;;;;;52.95;21.75;;;4.50;99.90;;;;;;5070346;28;20091;-82
2021/12/12 01:59:21;;;;;;;54.45;22.70;;;4.50;99.90;;;;;;5056276;28;20067;-82
2021/12/12 02:01:52;;;;;;;59.75;26.33;;;4.50;99.90;;;;;;5055670;28;20066;-83
2021/12/12 02:04:28;;;;;;;62.50;26.33;;;4.60;99.90;;;;;;5072656;28;20036;-83
2021/12/12 02:06:54;;;;;;;70.22;29.90;;;4.90;99.90;;;;;;5053575;28;20369;-82
2021/12/12 02:09:22;;;;;;;60.78;27.67;;;4.40;99.90;;;;;;5055620;28;20113;-82
2021/12/12 02:11:51;;;;;;;62.05;25.85;;;4.70;99.90;;;;;;5055274;28;20137;-82
2021/12/12 02:14:19;;;;;;;56.10;24.35;;;4.40;99.90;;;;;;5072147;28;20040;-82
2021/12/12 02:16:50;;;;;;;55.83;26.20;;;4.40;99.90;;;;;;5055289;28;20036;-82
2021/12/12 02:19:18;;;;;;;47.92;20.45;;;4.30;99.90;;;;;;5072810;28;20484;-83
2021/12/12 02:38:04;;;;;;;51.47;21.35;;;4.50;99.90;;;;;;5071642;28;20033;-83
2021/12/12 02:40:39;;;;;;;54.88;24.77;;;5.70;99.90;;;;;;5071779;28;20119;-83
2021/12/12 02:43:07;;;;;;;53.97;22.42;;;4.60;99.90;;;;;;5070255;28;20080;-83
2021/12/12 02:45:35;;;;;;;64.88;23.17;;;5.30;99.90;;;;;;5055125;28;20036;-83
2021/12/12 02:48:05;;;;;;;38.22;18.70;;;4.60;99.90;;;;;;5054608;28;20041;-83
2021/12/12 02:50:42;;;;;;;51.38;24.50;;;4.70;99.90;;;;;;5071275;28;20044;-83
2021/12/12 02:53:23;;;;;;;52.10;21.40;;;5.30;99.90;;;;;;5055422;28;20047;-83
2021/12/12 02:55:53;;;;;;;47.75;20.88;;;5.30;99.90;;;;;;5070553;28;20039;-83
2021/12/12 02:58:23;;;;;;;61.03;24.05;;;4.80;99.90;;;;;;5055101;28;20728;-83
2021/12/12 03:01:04;;;;;;;46.47;20.73;;;5.40;99.90;;;;;;5070925;28;20045;-83
2021/12/12 03:03:33;;;;;;;56.15;23.85;;;4.70;99.90;;;;;;5071353;28;20041;-83
2021/12/12 03:05:59;;;;;;;55.25;22.90;;;4.70;99.90;;;;;;5038690;28;20102;-83
2021/12/12 03:08:25;;;;;;;48.90;21.25;;;6.10;99.90;;;;;;5054306;28;20032;-83
2021/12/12 03:10:52;;;;;;;54.72;22.77;;;5.70;99.90;;;;;;5070418;28;20515;-83
2021/12/12 03:13:20;;;;;;;42.85;19.60;;;4.90;99.90;;;;;;5054198;28;20041;-83
2021/12/12 03:15:47;;;;;;;56.28;23.30;;;4.80;99.90;;;;;;5053993;28;20106;-83
2021/12/12 03:18:27;;;;;;;50.83;20.58;;;4.80;99.90;;;;;;5053869;28;20044;-82
2021/12/12 03:20:58;;;;;;;52.33;22.63;;;5.30;99.90;;;;;;5069949;28;20079;-82
2021/12/12 03:23:35;;;;;;;46.20;21.10;;;4.80;99.90;;;;;;5070254;28;20075;-82
2021/12/12 03:26:05;;;;;;;;;;;4.80;99.90;;;;;;5070351;28;20291;-83
2021/12/12 03:28:36;;;;;;;49.03;21.77;;;5.30;99.90;;;;;;5054171;28;19920;-82
2021/12/12 03:31:07;;;;;;;42.22;18.95;;;4.90;99.90;;;;;;5068473;28;20097;-82
2021/12/12 03:33:33;;;;;;;40.60;18.70;;;5.00;99.90;;;;;;5053832;28;20052;-83
2021/12/12 03:36:04;;;;;;;43.28;19.10;;;5.90;99.90;;;;;;5053486;28;20040;-83
2021/12/12 03:38:31;;;;;;;51.35;19.05;;;5.00;99.90;;;;;;5070691;28;20033;-82
2021/12/12 03:40:59;;;;;;;;;;;4.90;99.90;;;;;;5053569;28;20054;-82
2021/12/12 03:43:25;;;;;;;48.20;19.40;;;4.90;99.90;;;;;;5070680;28;20360;-82
2021/12/12 03:45:51;;;;;;;47.58;20.00;;;4.90;99.90;;;;;;5052906;28;20036;-82
2021/12/12 03:48:22;;;;;;;50.53;21.17;;;5.10;99.90;;;;;;5037301;28;20047;-82
2021/12/12 03:50:50;;;;;;;38.25;16.75;;;4.90;99.90;;;;;;5069999;28;20047;-82
2021/12/12 03:53:17;;;;;;;39.65;19.27;;;5.50;99.90;;;;;;5070239;28;20037;-82
2021/12/12 03:55:44;;;;;;;38.13;17.52;;;5.10;99.90;;;;;;5069398;28;20102;-83
2021/12/12 03:58:12;;;;;;;34.58;16.95;;;6.40;99.90;;;;;;5021128;28;20400;-81
2021/12/12 04:00:47;;;;;;;40.97;18.33;;;5.10;99.90;;;;;;5053332;28;20040;-82
2021/12/12 04:03:14;;;;;;;34.50;17.20;;;5.20;99.90;;;;;;5067809;28;20032;-82
2021/12/12 04:05:43;;;;;;;37.40;16.70;;;5.30;99.90;;;;;;5053100;28;20032;-82
2021/12/12 04:08:09;;;;;;;29.58;15.85;;;5.20;99.90;;;;;;5070200;28;20036;-83
2021/12/12 04:10:35;;;;;;;36.58;18.55;;;5.30;99.90;;;;;;5053323;28;20048;-83
2021/12/12 04:13:01;;;;;;;27.38;15.00;;;5.40;99.90;;;;;;5036719;28;20028;-83
2021/12/12 04:15:27;;;;;;;28.02;14.32;;;5.50;99.90;;;;;;5069969;28;20036;-83
2021/12/12 04:17:53;;;;;;;30.08;12.55;;;5.80;99.90;;;;;;5053152;28;20070;-82
2021/12/12 04:20:27;;;;;;;31.00;15.10;;;5.20;99.90;;;;;;5053189;28;20458;-82
2021/12/12 04:22:53;;;;;;;24.05;14.07;;;6.60;99.90;;;;;;5069546;28;20037;-83
2021/12/12 04:25:20;;;;;;;29.83;14.38;;;6.10;99.90;;;;;;5053194;28;20115;-83
2021/12/12 04:27:46;;;;;;;22.80;13.15;;;5.30;99.90;;;;;;5069818;28;20072;-82
2021/12/12 04:30:14;;;;;;;26.50;15.32;;;5.40;99.90;;;;;;5052649;28;20072;-83
2021/12/12 04:32:40;;;;;;;28.17;14.63;;;5.40;99.90;;;;;;5069628;28;20040;-83
2021/12/12 04:35:14;;;;;;;27.50;12.75;;;6.10;99.90;;;;;;5070049;28;20484;-83
2021/12/12 04:37:40;;;;;;;32.80;15.52;;;5.30;99.90;;;;;;5051689;28;20079;-83
2021/12/12 04:40:08;;;;;;;;;;;5.30;99.90;;;;;;5053444;28;20066;-83
2021/12/12 04:42:37;;;;;;;28.00;14.80;;;5.40;99.90;;;;;;5068668;28;19963;-83
2021/12/12 04:45:37;;;;;;;33.00;15.23;;;5.30;99.90;;;;;;5052259;28;20119;-83
2021/12/12 04:51:27;;;;;;;24.92;12.85;;;5.30;99.90;;;;;;5069875;28;20539;-83
2021/12/12 04:54:13;;;;;;;27.05;14.52;;;5.30;99.90;;;;;;5073478;28;20040;-83
2021/12/12 04:56:51;;;;;;;26.15;15.75;;;5.20;99.90;;;;;;5056675;28;20496;-83
2021/12/12 04:59:26;;;;;;;26.92;15.00;;;5.10;99.90;;;;;;5072415;28;20400;-83
2021/12/12 05:02:10;;;;;;;30.50;15.85;;;5.20;99.90;;;;;;5056472;28;20044;-83
2021/12/12 05:04:37;;;;;;;27.25;14.27;;;5.20;99.90;;;;;;5087966;28;21883;-83
2021/12/12 05:07:18;;;;;;;25.63;14.15;;;5.20;99.90;;;;;;5072577;28;20068;-83
2021/12/12 05:10:21;;;;;;;21.80;12.48;;;5.30;99.90;;;;;;5055857;28;20052;-82
2021/12/12 05:13:06;;;;;;;26.98;14.80;;;5.30;99.90;;;;;;5046620;28;20055;-83
2021/12/12 05:15:37;;;;;;;20.58;11.40;;;5.30;99.90;;;;;;5071761;28;20502;-83
2021/12/12 05:18:15;;;;;;;21.45;11.77;;;5.20;99.90;;;;;;5040077;28;20065;-82
2021/12/12 05:20:49;;;;;;;20.42;11.48;;;5.30;99.90;;;;;;5056184;28;20040;-82
2021/12/12 05:23:19;;;;;;;21.52;12.20;;;5.60;99.90;;;;;;5073360;28;20415;-82
2021/12/12 05:25:53;;;;;;;21.00;11.77;;;5.20;99.90;;;;;;5072687;28;20032;-82
2021/12/12 05:28:22;;;;;;;21.30;11.27;;;5.30;99.90;;;;;;5056401;28;20043;-82
2021/12/12 05:30:49;;;;;;;19.83;11.27;;;5.80;99.90;;;;;;5072661;28;20024;-82
2021/12/12 05:33:17;;;;;;;21.20;12.65;;;5.40;99.90;;;;;;5056785;28;20097;-82
2021/12/12 05:35:44;;;;;;;21.58;11.48;;;5.40;99.90;;;;;;5072354;28;20033;-83
2021/12/12 05:38:11;;;;;;;19.50;10.52;;;5.90;99.90;;;;;;5038968;28;20400;-81
2021/12/12 05:40:39;;;;;;;22.60;11.05;;;5.40;99.90;;;;;;5056631;28;20040;-82
2021/12/12 05:43:06;;;;;;;19.25;11.63;;;5.70;99.90;;;;;;5055874;28;20404;-82
2021/12/12 05:45:34;;;;;;;19.08;11.52;;;5.90;99.90;;;;;;5072639;28;20044;-82
2021/12/12 05:48:03;;;;;;;17.90;10.48;;;5.50;99.90;;;;;;5072241;28;20388;-82
2021/12/12 05:50:29;;;;;;;16.85;10.30;;;5.90;99.90;;;;;;5056311;28;20049;-82
2021/12/12 05:52:55;;;;;;;21.42;11.93;;;5.60;99.90;;;;;;5039016;28;20045;-82
2021/12/12 05:55:28;;;;;;;16.77;9.98;;;5.60;99.90;;;;;;5055738;28;20047;-82
2021/12/12 05:57:56;;;;;;;21.00;11.85;;;6.50;99.90;;;;;;5072026;28;20102;-82
2021/12/12 06:00:53;;;;;;;20.60;11.30;;;5.70;99.90;;;;;;5072445;28;20044;-82
2021/12/12 06:03:25;;;;;;;22.88;11.82;;;5.60;99.90;;;;;;5055877;28;20044;-82
2021/12/12 06:05:53;;;;;;;20.80;10.55;;;7.10;99.90;;;;;;5072278;28;20033;-82
2021/12/12 06:08:21;;;;;;;17.02;10.63;;;5.80;99.90;;;;;;5055756;28;20044;-82
2021/12/12 06:10:48;;;;;;;21.98;12.40;;;5.80;99.90;;;;;;5071675;28;20114;-82
2021/12/12 06:13:18;;;;;;;17.50;10.23;;;5.80;99.90;;;;;;5071576;28;20083;-82
2021/12/12 06:15:45;;;;;;;21.27;11.20;;;6.10;99.90;;;;;;5071632;28;20048;-82
2021/12/12 06:18:12;;;;;;;24.17;12.50;;;6.30;99.90;;;;;;5071697;28;20059;-83
2021/12/12 06:20:40;;;;;;;23.95;12.85;;;5.90;99.90;;;;;;5038935;28;20067;-82
2021/12/12 06:23:08;;;;;;;21.65;12.00;;;5.90;99.90;;;;;;5054906;28;20036;-82
2021/12/12 06:25:35;;;;;;;23.45;12.18;;;5.90;99.90;;;;;;5055421;28;20115;-82
2021/12/12 06:28:07;;;;;;;21.35;11.02;;;5.90;99.90;;;;;;5071370;28;20033;-82
2021/12/12 06:30:33;;;;;;;22.63;12.43;;;7.20;99.90;;;;;;5052951;28;20151;-82
2021/12/12 06:32:59;;;;;;;21.38;11.48;;;5.80;99.90;;;;;;5038166;28;20079;-81
2021/12/12 06:35:25;;;;;;;19.92;11.18;;;7.10;99.90;;;;;;5071751;28;20055;-82
2021/12/12 06:37:51;;;;;;;17.85;8.98;;;5.90;99.90;;;;;;5054574;28;20040;-81
2021/12/12 06:40:20;;;;;;;23.40;11.52;;;6.00;99.90;;;;;;5055014;28;20078;-81
2021/12/12 06:42:48;;;;;;;19.27;10.40;;;6.10;99.90;;;;;;5071112;28;20120;-81
2021/12/12 06:45:15;;;;;;;20.33;11.02;;;6.00;99.90;;;;;;5054295;28;20037;-82
2021/12/12 06:47:40;;;;;;;;;;;6.00;99.90;;;;;;5055709;28;20032;-82
2021/12/12 06:50:09;;;;;;;16.85;9.23;;;7.50;99.90;;;;;;5037987;28;19927;-82
2021/12/12 06:52:35;;;;;;;16.25;9.93;;;6.20;99.90;;;;;;5071018;28;20039;-82
2021/12/12 06:55:03;;;;;;;19.33;11.10;;;6.10;99.90;;;;;;5071030;28;20063;-82
2021/12/12 06:57:29;;;;;;;18.38;11.15;;;6.10;99.90;;;;;;5071503;28;20071;-82
2021/12/12 06:59:56;;;;;;;22.73;10.40;;;6.10;99.90;;;;;;5054183;28;20072;-82
2021/12/12 07:02:24;;;;;;;16.08;9.40;;;6.20;99.90;;;;;;5052065;28;20040;-82
2021/12/12 07:04:50;;;;;;;25.52;11.77;;;7.00;99.90;;;;;;5071067;28;20036;-82
2021/12/12 07:07:17;;;;;;;22.05;11.15;;;6.30;99.90;;;;;;5037318;28;20048;-82
2021/12/12 07:09:46;;;;;;;21.83;12.18;;;6.20;99.90;;;;;;5070455;28;20105;-82
2021/12/12 07:12:15;;;;;;;13.68;8.98;;;6.20;99.90;;;;;;5052884;28;20039;-83
2021/12/12 07:14:41;;;;;;;19.98;10.52;;;7.20;99.90;;;;;;5051840;28;20067;-83
2021/12/12 07:17:08;;;;;;;20.38;10.70;;;6.30;99.90;;;;;;5052247;28;20036;-83
2021/12/12 07:19:37;;;;;;;21.77;10.85;;;6.20;99.90;;;;;;5052560;28;20119;-83
2021/12/12 07:22:03;;;;;;;22.85;11.20;;;6.20;99.90;;;;;;5053536;28;20044;-82
2021/12/12 07:24:31;;;;;;;19.67;10.35;;;6.90;99.90;;;;;;5070128;28;20123;-82
2021/12/12 07:26:58;;;;;;;27.58;12.82;;;6.40;99.90;;;;;;5070507;28;20086;-83
2021/12/12 07:29:25;;;;;;;23.63;12.43;;;6.70;99.90;;;;;;5037902;28;20097;-82
2021/12/12 07:31:51;;;;;;;22.52;11.48;;;6.50;99.90;;;;;;5037338;28;20510;-83
2021/12/12 07:34:17;;;;;;;22.52;10.80;;;6.90;99.90;;;;;;5070025;28;20028;-83
2021/12/12 07:36:54;;;;;;;21.13;10.95;;;7.20;99.90;;;;;;5053842;28;20033;-83
2021/12/12 07:39:22;;;;;;;22.67;11.38;;;6.40;99.90;;;;;;5069871;28;20090;-83
2021/12/12 07:41:50;;;;;;;24.30;11.48;;;6.40;99.90;;;;;;5036765;28;20059;-83
2021/12/12 07:44:20;;;;;;;21.90;10.65;;;7.60;99.90;;;;;;5050476;28;20032;-83
2021/12/12 07:46:47;;;;;;;24.13;11.75;;;6.40;99.90;;;;;;5070087;28;20047;-83
2021/12/12 07:49:13;;;;;;;23.17;11.35;;;6.50;99.90;;;;;;5053240;28;20553;-82
2021/12/12 07:51:41;;;;;;;31.05;13.43;;;6.50;99.90;;;;;;5053327;28;20051;-79
2021/12/12 07:54:08;;;;;;;27.52;12.30;;;6.40;99.90;;;;;;5068856;28;20043;-80
2021/12/12 07:56:37;;;;;;;27.45;13.68;;;6.50;99.90;;;;;;5036897;28;20361;-78
2021/12/12 07:59:05;;;;;;;29.65;13.30;;;6.50;99.90;;;;;;5068330;28;20384;-78
2021/12/12 08:01:31;;;;;;;26.45;11.68;;;6.70;99.90;;;;;;5069113;28;20040;-79
2021/12/12 08:03:58;;;;;;;28.38;12.68;;;6.50;99.90;;;;;;5069006;28;20396;-78
2021/12/12 08:06:25;;;;;;;26.75;13.00;;;6.70;99.90;;;;;;5052549;28;20040;-79
2021/12/12 08:08:53;;;;;;;24.55;11.95;;;6.70;99.90;;;;;;5052444;28;20056;-79
2021/12/12 08:11:26;;;;;;;25.20;12.38;;;6.60;99.90;;;;;;5068124;28;20518;-79
2021/12/12 08:13:52;;;;;;;27.48;12.80;;;6.70;99.90;;;;;;5050312;28;20131;-78
2021/12/12 08:16:19;;;;;;;22.58;10.98;;;6.70;99.90;;;;;;5068488;28;20091;-78
2021/12/12 08:18:45;;;;;;;24.30;11.18;;;6.70;99.90;;;;;;5068352;28;20047;-77
2021/12/12 08:21:12;;;;;;;23.77;13.25;;;6.80;99.90;;;;;;5068421;28;20044;-78
2021/12/12 08:23:38;;;;;;;;;;;6.80;99.90;;;;;;5052214;28;20040;-77
2021/12/12 08:26:07;;;;;;;25.85;12.63;;;6.70;99.90;;;;;;5068777;28;19916;-77
2021/12/12 08:28:34;;;;;;;24.30;11.90;;;6.70;99.90;;;;;;5056760;28;20509;-79
2021/12/12 08:31:01;;;;;;;25.65;11.65;;;6.70;99.90;;;;;;5055757;28;20040;-77
2021/12/12 08:33:27;;;;;;;30.33;13.23;;;6.80;99.90;;;;;;5072301;28;20041;-77
2021/12/12 08:35:53;;;;;;;31.40;13.10;;;6.80;99.90;;;;;;5055494;28;20040;-77
2021/12/12 08:38:19;;;;;;;34.17;14.07;;;6.80;99.90;;;;;;5072744;28;20380;-79
2021/12/12 08:40:49;;;;;;;29.83;14.32;;;6.80;99.90;;;;;;5056191;28;20081;-79
2021/12/12 08:43:17;;;;;;;27.63;11.85;;;7.90;99.90;;;;;;5070817;28;20109;-79
2021/12/12 08:45:51;;;;;;;26.95;12.30;;;6.90;99.90;;;;;;5072867;28;20051;-78
2021/12/12 08:48:19;;;;;;;26.88;12.70;;;7.00;99.90;;;;;;5055946;28;20082;-79
2021/12/12 08:50:48;;;;;;;26.50;10.63;;;7.00;99.90;;;;;;5072564;28;20132;-79
2021/12/12 08:53:16;;;;;;;33.25;14.55;;;7.00;99.90;;;;;;5055740;28;20064;-79
2021/12/12 08:55:45;;;;;;;30.17;13.25;;;7.00;99.90;;;;;;5072992;28;20048;-79
2021/12/12 08:58:20;;;;;;;30.88;14.88;;;7.60;99.90;;;;;;5072423;28;20393;-79
2021/12/12 09:00:54;;;;;;;31.63;13.70;;;7.00;99.90;;;;;;5070100;28;20052;-79
2021/12/12 09:03:43;;;;;;;29.65;12.80;;;7.00;99.90;;;;;;5072543;28;20515;-78
2021/12/12 09:06:13;;;;;;;35.65;13.98;;;7.10;99.90;;;;;;5055522;28;20396;-79
2021/12/12 09:08:57;;;;;;;40.55;15.95;;;7.10;99.90;;;;;;5072646;28;20041;-79
2021/12/12 09:11:52;;;;;;;44.50;17.05;;;7.10;99.90;;;;;;5072246;28;20048;-77
2021/12/12 09:14:21;;;;;;;37.22;14.95;;;7.10;99.90;;;;;;5071829;28;20040;-77
2021/12/12 09:17:02;;;;;;;44.58;17.27;;;7.10;99.90;;;;;;5070296;28;20463;-77
2021/12/12 09:19:54;;;;;;;47.63;17.80;;;7.10;99.90;;;;;;5055726;28;20476;-78
2021/12/12 09:22:29;;;;;;;48.08;16.60;;;7.10;99.90;;;;;;5051488;28;20590;-77
2021/12/12 09:25:01;;;;;;;47.95;18.50;;;7.20;99.90;;;;;;5055781;28;20040;-78
2021/12/12 09:27:43;;;;;;;57.90;19.25;;;7.20;99.90;;;;;;5070107;28;20044;-81
2021/12/12 09:30:17;;;;;;;52.17;18.30;;;7.10;99.90;;;;;;5071988;28;20039;-78
2021/12/12 09:32:54;;;;;;;60.50;20.52;;;7.20;99.90;;;;;;5072214;28;20758;-79
2021/12/12 09:35:40;;;;;;;54.58;18.15;;;7.20;99.90;;;;;;5069607;28;20033;-77
2021/12/12 09:38:35;;;;;;;59.20;19.45;;;7.30;99.90;;;;;;5068640;28;20033;-76
2021/12/12 09:41:17;;;;;;;68.57;21.63;;;7.30;99.90;;;;;;5052728;28;20076;-76
2021/12/12 09:43:52;;;;;;;57.88;18.27;;;7.30;99.90;;;;;;5071072;28;20127;-78
2021/12/12 09:47:00;;;;;;;73.30;22.48;;;7.40;99.90;;;;;;5070948;28;20041;-77
2021/12/12 09:53:29;;;;;;;79.20;24.17;;;7.40;99.90;;;;;;5012815;28;20073;-78
2021/12/12 09:55:57;;;;;;;80.18;22.88;;;7.50;99.90;;;;;;5013740;28;20029;-78
2021/12/12 09:58:55;;;;;;;77.85;23.63;;;7.60;99.90;;;;;;5063733;28;20048;-78
2021/12/12 10:01:27;;;;;;;81.57;24.67;;;7.60;99.90;;;;;;5052029;28;20056;-77
2021/12/12 10:04:08;;;;;;;80.35;22.90;;;7.60;99.90;;;;;;5071231;28;20043;-78
2021/12/12 10:06:52;;;;;;;83.63;23.80;;;7.60;99.90;;;;;;5054467;28;20102;-78
2021/12/12 10:09:26;;;;;;;92.25;25.83;;;7.70;99.90;;;;;;5070066;28;20037;-79
2021/12/12 10:12:24;;;;;;;86.72;24.85;;;7.70;99.90;;;;;;5052534;28;20078;-78
2021/12/12 10:14:55;;;;;;;94.93;26.48;;;7.70;99.90;;;;;;5049906;28;20053;-79
2021/12/12 10:17:52;;;;;;;81.10;22.75;;;7.70;99.90;;;;;;5070695;28;20062;-78
2021/12/12 10:20:24;;;;;;;89.25;25.73;;;7.70;99.90;;;;;;5070847;28;20036;-78
2021/12/12 10:22:55;;;;;;;90.15;25.77;;;7.70;99.90;;;;;;5070647;28;20044;-78
2021/12/12 10:25:30;;;;;;;90.47;25.58;;;7.80;99.90;;;;;;5070329;28;20044;-78
2021/12/12 10:28:06;;;;;;;83.55;24.42;;;7.80;99.90;;;;;;5086829;28;20037;-78
2021/12/12 10:30:38;;;;;;;90.95;25.20;;;7.80;99.90;;;;;;5069993;28;20045;-78
2021/12/12 10:33:34;;;;;;;79.38;23.52;;;7.90;99.90;;;;;;5068147;28;20041;-77
2021/12/12 10:36:11;;;;;;;78.28;24.05;;;7.90;99.90;;;;;;5064226;28;20049;-79
2021/12/12 10:38:57;;;;;;;99.35;25.27;;;8.00;99.90;;;;;;5069641;28;20044;-78
2021/12/12 10:41:31;;;;;;;83.32;24.02;;;8.00;99.90;;;;;;5051932;28;20538;-77
2021/12/12 10:44:03;;;;;;;86.15;25.58;;;8.10;99.90;;;;;;5070268;28;20044;-78
2021/12/12 10:46:36;;;;;;;90.85;26.48;;;8.00;99.90;;;;;;5053452;28;20047;-78
2021/12/12 10:49:17;;;;;;;85.43;25.20;;;8.00;99.90;;;;;;5070006;28;20496;-78
2021/12/12 10:51:56;;;;;;;103.72;25.17;;;8.10;99.90;;;;;;5052097;28;20508;-78
2021/12/12 10:54:37;;;;;;;80.45;24.33;;;8.10;99.90;;;;;;5069496;28;20078;-78
2021/12/12 10:57:11;;;;;;;83.30;23.55;;;8.20;99.90;;;;;;5052888;28;20039;-77
2021/12/12 11:00:07;;;;;;;104.00;26.90;;;8.20;99.90;;;;;;5069758;28;20036;-76
2021/12/12 11:02:39;;;;;;;83.72;25.10;;;8.20;99.90;;;;;;5060607;28;20047;-76
2021/12/12 11:05:17;;;;;;;83.60;24.00;;;8.20;99.90;;;;;;5070049;28;20043;-79
2021/12/12 11:07:53;;;;;;;95.45;25.55;;;8.20;99.90;;;;;;5054909;28;20036;-87
2021/12/12 11:10:27;;;;;;;80.75;23.80;;;8.30;99.90;;;;;;5069835;28;20455;-78
2021/12/12 11:12:59;;;;;;;71.07;21.33;;;8.40;99.90;;;;;;5052738;28;20047;-76
2021/12/12 11:15:34;;;;;;;95.03;24.45;;;8.40;99.90;;;;;;5067928;28;20441;-77
2021/12/12 11:18:05;;;;;;;68.47;21.38;;;8.40;99.90;;;;;;5068707;28;20051;-75
2021/12/12 11:20:37;;;;;;;67.25;22.23;;;8.50;99.90;;;;;;5049771;28;20076;-74
2021/12/12 11:23:12;;;;;;;78.18;22.95;;;8.50;99.90;;;;;;5068335;28;20090;-76
2021/12/12 11:25:54;;;;;;;61.40;20.73;;;8.50;99.90;;;;;;5065896;28;20123;-75
2021/12/12 11:28:26;;;;;;;87.47;24.90;;;8.50;99.90;;;;;;5067321;28;20687;-76
2021/12/12 11:31:04;;;;;;;75.80;22.73;;;8.50;99.90;;;;;;5065064;28;20082;-75
2021/12/12 11:33:32;;;;;;;77.15;22.55;;;8.60;99.90;;;;;;5065037;28;20097;-76
2021/12/12 11:35:59;;;;;;;71.43;22.10;;;8.70;99.90;;;;;;5052502;28;20067;-76
2021/12/12 11:38:47;;;;;;;74.05;22.58;;;8.70;99.90;;;;;;5051906;28;20038;-76
2021/12/12 11:41:25;;;;;;;74.47;22.10;;;8.70;99.90;;;;;;5100275;28;20047;-75
2021/12/12 11:44:21;;;;;;;62.85;20.70;;;8.70;99.90;;;;;;5068218;28;20282;-77
2021/12/12 11:47:00;;;;;;;60.03;21.48;;;8.80;99.90;;;;;;5068603;28;20056;-75
2021/12/12 11:49:40;;;;;;;54.00;19.42;;;8.80;99.90;;;;;;5068360;28;20090;-75
2021/12/12 11:52:10;;;;;;;57.97;19.85;;;8.80;99.90;;;;;;5068997;28;20102;-74
2021/12/12 11:54:49;;;;;;;54.97;18.85;;;8.70;99.90;;;;;;5049833;28;20066;-75
2021/12/12 11:57:21;;;;;;;62.70;19.48;;;8.80;99.90;;;;;;5052633;28;20047;-76
2021/12/12 12:00:15;;;;;;;56.20;19.15;;;8.90;99.90;;;;;;5066195;28;20044;-75
2021/12/12 12:03:08;;;;;;;53.25;18.20;;;8.90;99.90;;;;;;5050235;28;20040;-78
2021/12/12 12:05:37;;;;;;;55.72;18.48;;;8.90;99.90;;;;;;5082858;28;20054;-75
2021/12/12 12:08:21;;;;;;;49.28;17.63;;;8.80;99.90;;;;;;5068152;28;20036;-74
2021/12/12 12:11:15;;;;;;;51.92;17.98;;;8.90;99.90;;;;;;5049832;28;20061;-75
2021/12/12 12:14:28;;;;;;;50.72;17.55;;;8.90;99.90;;;;;;5052151;28;20068;-76
2021/12/12 12:17:05;;;;;;;47.88;17.88;;;8.90;99.90;;;;;;5010984;28;20045;-75
2021/12/12 12:19:43;;;;;;;46.90;16.75;;;8.90;99.90;;;;;;5062915;28;20626;-75
2021/12/12 12:22:09;;;;;;;45.00;17.42;;;8.90;99.90;;;;;;5052023;28;20083;-75
2021/12/12 12:24:56;;;;;;;44.97;16.42;;;9.00;99.90;;;;;;5068374;28;20037;-76
2021/12/12 12:27:53;;;;;;;51.08;17.85;;;9.10;99.90;;;;;;5068036;28;20036;-74
2021/12/12 12:30:31;;;;;;;48.10;16.63;;;9.00;99.90;;;;;;5066832;28;20041;-76
2021/12/12 12:33:12;;;;;;;53.83;18.40;;;9.00;99.90;;;;;;5051412;28;20091;-76
2021/12/12 12:36:16;;;;;;;49.05;17.45;;;9.10;99.90;;;;;;5051095;28;20036;-75
2021/12/12 12:39:19;;;;;;;45.92;16.45;;;9.10;99.90;;;;;;5065491;28;20045;-76
2021/12/12 12:42:22;;;;;;;55.00;17.92;;;9.10;99.90;;;;;;5066159;28;20040;-75
2021/12/12 12:45:20;;;;;;;45.33;17.48;;;9.10;99.90;;;;;;5066252;28;20044;-76
2021/12/12 12:48:04;;;;;;;46.90;17.98;;;9.10;99.90;;;;;;5065981;28;20032;-76
2021/12/12 12:51:15;;;;;;;51.22;17.42;;;9.10;99.90;;;;;;5065335;28;20032;-76
2021/12/12 12:54:08;;;;;;;50.60;16.77;;;9.10;99.90;;;;;;5036105;28;20082;-75
2021/12/12 12:57:09;;;;;;;49.55;15.80;;;9.10;99.90;;;;;;5067202;28;20035;-76
2021/12/12 13:00:06;;;;;;;54.28;17.50;;;9.10;99.90;;;;;;5067203;28;20044;-76
2021/12/12 13:02:39;;;;;;;54.17;16.77;;;9.10;99.90;;;;;;5066748;28;20353;-76
2021/12/12 13:05:07;;;;;;;47.30;16.27;;;9.10;99.90;;;;;;5067848;28;20059;-75
2021/12/12 13:08:11;;;;;;;59.67;18.33;;;9.10;99.90;;;;;;5067506;28;20039;-74
2021/12/12 13:10:38;;;;;;;55.35;16.60;;;9.10;99.90;;;;;;5065491;28;20057;-77
2021/12/12 13:13:17;;;;;;;60.63;18.50;;;9.20;99.90;;;;;;5067938;28;20044;-77
2021/12/12 13:16:10;;;;;;;61.28;17.15;;;9.10;99.90;;;;;;5070796;28;20042;-77
2021/12/12 13:18:58;;;;;;;51.10;16.70;;;9.10;99.90;;;;;;5069268;28;20114;-77
2021/12/12 13:21:54;;;;;;;50.90;16.52;;;9.20;99.90;;;;;;5070300;28;20086;-77
2021/12/12 13:25:13;;;;;;;53.63;15.30;;;9.10;99.90;;;;;;5071491;28;20048;-75
2021/12/12 13:30:28;;;;;;;55.78;16.50;;;9.20;99.90;;;;;;5072100;28;19924;-75
2021/12/12 13:33:03;;;;;;;55.10;16.20;;;9.20;99.90;;;;;;5053755;28;20041;-75
2021/12/12 13:35:45;;;;;;;77.40;19.02;;;9.70;99.90;;;;;;5054385;28;20048;-75
2021/12/12 13:38:20;;;;;;;57.65;16.50;;;9.30;99.90;;;;;;5071116;28;20045;-75